Time;durP1;ratioP1;P1;durP2;ratioP2;P2;SDS_P1;SDS_P2;PMS_P1;PMS_P2;Temp;Humidity;BMP_temperature;BMP_pressure;BME280_temperature;BME280_humidity;BME280_pressure;Samples;Min_cycle;Max_cycle;Signal;HPM_P1;HPM_P2
2022/09/11 00:01:21;;;;;;;20.67;13.98;;;;;;;23.22;78.96;99644.72;5068493;28;20241;-31
2022/09/11 00:03:47;;;;;;;19.80;13.55;;;;;;;23.29;76.88;99621.69;5068233;28;20043;-30
2022/09/11 00:06:23;;;;;;;15.68;13.82;;;;;;;23.29;78.57;99652.41;5050039;28;20054;-30
2022/09/11 00:08:57;;;;;;;19.35;13.73;;;;;;;23.39;78.37;99651.34;5050182;28;20101;-28
2022/09/11 00:11:22;;;;;;;15.73;12.50;;;;;;;23.18;78.67;99651.09;5067987;28;20043;-28
2022/09/11 00:13:50;;;;;;;16.58;12.63;;;;;;;23.21;78.79;99645.00;5068130;28;20029;-32
2022/09/11 00:16:20;;;;;;;15.85;13.60;;;;;;;23.25;78.15;99638.66;5068282;28;20079;-31
2022/09/11 00:18:47;;;;;;;18.65;13.32;;;;;;;23.27;78.21;99635.59;5049808;28;20032;-33
2022/09/11 00:21:13;;;;;;;18.20;12.77;;;;;;;23.31;77.61;99647.47;5049887;28;20529;-28
2022/09/11 00:23:38;;;;;;;19.92;12.88;;;;;;;23.13;78.45;99641.16;5067814;28;20036;-28
2022/09/11 00:26:05;;;;;;;18.13;12.15;;;;;;;22.91;79.14;99625.66;5067593;28;20039;-30
2022/09/11 00:28:30;;;;;;;15.75;11.85;;;;;;;23.01;78.39;99627.31;5049582;28;20031;-29
2022/09/11 00:30:58;;;;;;;16.88;11.27;;;;;;;22.97;79.29;99639.94;5067608;28;20489;-30
2022/09/11 00:33:26;;;;;;;18.67;11.57;;;;;;;23.09;78.60;99644.78;5049460;28;20036;-29
2022/09/11 00:35:57;;;;;;;15.93;11.18;;;;;;;22.96;79.92;99646.47;5049579;28;20032;-28
2022/09/11 00:38:27;;;;;;;14.40;10.45;;;;;;;22.89;79.55;99651.56;5049044;28;20119;-31
2022/09/11 00:40:54;;;;;;;15.10;11.40;;;;;;;23.01;79.03;99654.50;5049615;28;20037;-28
2022/09/11 00:43:20;;;;;;;15.73;11.32;;;;;;;22.77;79.19;99643.97;5067980;28;20029;-29
2022/09/11 00:45:54;;;;;;;15.98;10.80;;;;;;;22.70;79.49;99654.47;5049442;28;20127;-30
2022/09/11 00:48:23;;;;;;;14.85;10.63;;;;;;;22.68;79.89;99657.50;5049425;28;20102;-30
2022/09/11 00:50:50;;;;;;;14.63;10.60;;;;;;;22.69;80.27;99658.31;5067234;28;20039;-31
2022/09/11 00:53:20;;;;;;;16.27;10.27;;;;;;;22.53;79.42;99638.84;5049072;28;20060;-28
2022/09/11 00:55:52;;;;;;;16.77;10.93;;;;;;;22.72;79.13;99658.50;5067464;28;20273;-28
2022/09/11 00:58:26;;;;;;;17.90;11.13;;;;;;;22.56;79.79;99657.28;5049333;28;20475;-30
2022/09/11 01:00:55;;;;;;;13.82;10.20;;;;;;;22.37;80.83;99647.38;5049217;28;20024;-29
2022/09/11 01:03:21;;;;;;;14.75;10.57;;;;;;;22.29;81.51;99650.81;5048789;28;20063;-28
2022/09/11 01:05:47;;;;;;;11.10;9.25;;;;;;;22.19;81.31;99642.84;5048577;28;20060;-30
2022/09/11 01:08:12;;;;;;;13.23;9.88;;;;;;;22.24;81.16;99640.06;5067314;28;20035;-28
2022/09/11 01:11:07;;;;;;;15.73;10.38;;;;;;;22.12;81.11;99634.34;5048792;28;20025;-30
2022/09/11 01:13:45;;;;;;;13.32;9.70;;;;;;;22.27;80.92;99655.75;5067055;28;20042;-28
2022/09/11 01:16:37;;;;;;;13.52;9.77;;;;;;;22.06;81.60;99653.44;5067122;28;20024;-29
2022/09/11 01:19:16;;;;;;;12.02;8.88;;;;;;;22.08;81.37;99653.16;5048838;28;20028;-29
2022/09/11 01:22:16;;;;;;;14.07;9.25;;;;;;;21.90;82.03;99649.47;5048881;28;20025;-30
2022/09/11 01:25:14;;;;;;;12.90;8.75;;;;;;;21.83;82.63;99654.53;5048665;28;20468;-30
2022/09/11 01:28:14;;;;;;;11.63;8.88;;;;;;;21.70;82.57;99633.63;5066820;28;20040;-33
2022/09/11 01:30:46;;;;;;;11.75;8.55;;;;;;;21.81;82.59;99646.66;5015881;28;20051;-30
2022/09/11 01:33:27;;;;;;;11.88;8.43;;;;;;;21.94;81.42;99650.47;5048786;28;20529;-36
2022/09/11 01:36:02;;;;;;;11.77;8.88;;;;;;;21.96;81.52;99650.97;5048550;28;20431;-30
2022/09/11 01:38:28;;;;;;;12.57;9.00;;;;;;;22.02;81.73;99649.75;5048459;28;20729;-29
2022/09/11 01:40:58;;;;;;;12.85;8.68;;;;;;;21.66;82.10;99625.28;5066619;28;20036;-28
2022/09/11 01:43:33;;;;;;;13.73;9.23;;;;;;;21.97;81.10;99638.22;5048810;28;20020;-29
2022/09/11 01:46:02;;;;;;;15.88;9.05;;;;;;;21.78;82.18;99636.44;5052759;28;20024;-30
2022/09/11 01:48:37;;;;;;;13.15;8.90;;;;;;;21.86;80.85;99630.28;5070698;28;20021;-29
2022/09/11 01:51:07;;;;;;;13.98;9.68;;;;;;;21.82;81.50;99625.75;5070918;28;20618;-28
2022/09/11 01:53:36;;;;;;;14.00;9.13;;;;;;;21.81;81.87;99637.72;5052543;28;20478;-28
2022/09/11 01:56:09;;;;;;;12.23;9.38;;;;;;;21.66;82.01;99617.94;5070976;28;20064;-28
2022/09/11 01:58:36;;;;;;;16.08;9.10;;;;;;;21.79;81.35;99610.88;5070609;28;20506;-28
2022/09/11 02:01:08;;;;;;;13.82;9.70;;;;;;;21.89;80.60;99631.59;5035773;28;20028;-28
2022/09/11 02:03:41;;;;;;;12.57;9.65;;;;;;;21.67;82.14;99619.53;5052407;28;20036;-30
2022/09/11 02:06:14;;;;;;;13.18;9.30;;;;;;;21.61;82.29;99620.75;5070002;28;20922;-29
2022/09/11 02:08:49;;;;;;;14.27;10.27;;;;;;;21.60;82.67;99630.03;5052417;28;20028;-29
2022/09/11 02:11:15;;;;;;;15.52;9.93;;;;;;;21.43;82.64;99600.81;5052529;28;20071;-28
2022/09/11 02:13:59;;;;;;;12.98;10.10;;;;;;;21.43;82.85;99621.69;5069904;28;20131;-32
2022/09/11 02:16:34;;;;;;;12.95;9.32;;;;;;;21.53;82.71;99628.81;5069672;28;20032;-29
2022/09/11 02:19:06;;;;;;;16.98;9.50;;;;;;;21.27;82.98;99611.13;5070419;28;20023;-28
2022/09/11 02:21:32;;;;;;;15.85;9.70;;;;;;;21.35;83.10;99614.22;5051934;28;20040;-29
2022/09/11 02:23:59;;;;;;;12.70;9.20;;;;;;;21.50;82.95;99630.22;5051927;28;20111;-28
2022/09/11 02:26:27;;;;;;;12.73;10.13;;;;;;;21.42;82.60;99612.75;5051424;28;20035;-29
2022/09/11 02:28:54;;;;;;;15.82;9.50;;;;;;;21.65;82.02;99631.81;5034994;28;20033;-33
2022/09/11 02:31:21;;;;;;;15.00;9.95;;;;;;;21.38;83.95;99624.47;5051790;28;20036;-28
2022/09/11 02:33:48;;;;;;;12.45;9.90;;;;;;;21.47;82.66;99625.38;5070091;28;20033;-30
2022/09/11 02:36:36;;;;;;;12.07;9.88;;;;;;;21.32;83.97;99622.97;5051752;28;20039;-28
2022/09/11 02:39:38;;;;;;;14.15;10.48;;;;;;;21.20;84.00;99623.47;5069868;28;20173;-28
2022/09/11 02:42:19;;;;;;;14.15;10.05;;;;;;;21.18;84.03;99626.47;5051731;28;20455;-31
2022/09/11 02:44:58;;;;;;;15.73;10.07;;;;;;;21.03;84.46;99610.50;5069546;28;20086;-28
2022/09/11 02:48:01;;;;;;;15.85;10.55;;;;;;;21.22;84.25;99634.81;5051538;28;20118;-32
2022/09/11 02:51:20;;;;;;;14.73;10.60;;;;;;;21.18;84.57;99634.59;5051198;28;20120;-34
2022/09/11 02:54:01;;;;;;;14.98;10.40;;;;;;;21.11;85.01;99645.06;5006905;28;20138;-31
2022/09/11 02:56:43;;;;;;;15.77;10.80;;;;;;;21.12;85.18;99646.63;5062269;28;20579;-29
2022/09/11 02:59:24;;;;;;;18.80;13.05;;;;;;;21.11;84.60;99642.34;5051395;28;20119;-29
2022/09/11 03:01:53;;;;;;;21.70;13.45;;;;;;;21.12;84.35;99643.94;5051014;28;20036;-32
2022/09/11 03:04:22;;;;;;;22.90;13.50;;;;;;;21.28;83.71;99637.13;5050661;28;20502;-36
2022/09/11 03:06:48;;;;;;;17.65;12.52;;;;;;;21.24;82.50;99622.53;5068992;28;20153;-29
2022/09/11 03:09:18;;;;;;;13.93;10.88;;;;;;;21.28;81.95;99625.47;5069303;28;20036;-29
2022/09/11 03:11:44;;;;;;;12.18;9.35;;;;;;;21.45;81.22;99639.28;5051023;28;20109;-33
2022/09/11 03:14:11;;;;;;;14.73;10.30;;;;;;;21.49;80.68;99654.94;5051031;28;20032;-31
2022/09/11 03:16:37;;;;;;;16.83;11.10;;;;;;;21.32;80.50;99636.53;5068842;28;20032;-30
2022/09/11 03:19:03;;;;;;;13.68;10.65;;;;;;;21.24;81.14;99655.09;5050651;28;20070;-29
2022/09/11 03:21:28;;;;;;;11.07;8.90;;;;;;;21.15;81.99;99656.91;5050760;28;20028;-30
2022/09/11 03:23:54;;;;;;;15.45;9.90;;;;;;;21.14;82.02;99659.91;5069083;28;20086;-30
2022/09/11 03:26:20;;;;;;;15.05;10.10;;;;;;;20.96;82.57;99664.28;5050528;28;20121;-29
2022/09/11 03:28:46;;;;;;;14.82;10.13;;;;;;;21.07;82.31;99665.72;5068647;28;20027;-29
2022/09/11 03:31:12;;;;;;;13.88;9.70;;;;;;;20.93;82.97;99665.69;5068999;28;20032;-28
2022/09/11 03:33:38;;;;;;;14.45;9.32;;;;;;;20.84;83.09;99673.72;5068534;28;20032;-29
2022/09/11 03:36:04;;;;;;;13.07;9.55;;;;;;;20.40;84.94;99664.06;5068528;28;20032;-33
2022/09/11 03:38:30;;;;;;;15.27;10.63;;;;;;;20.51;84.38;99658.50;5050363;28;20024;-29
2022/09/11 03:40:55;;;;;;;13.20;10.25;;;;;;;20.52;85.55;99677.16;5068871;28;20029;-29
2022/09/11 03:43:21;;;;;;;12.82;9.63;;;;;;;20.56;84.79;99689.03;5068500;28;20020;-28
2022/09/11 03:45:50;;;;;;;12.48;9.50;;;;;;;20.75;83.79;99691.72;5068387;28;20032;-28
2022/09/11 03:48:16;;;;;;;14.13;10.57;;;;;;;20.84;83.07;99689.97;5050361;28;20064;-29
2022/09/11 03:50:44;;;;;;;15.10;10.15;;;;;;;20.56;84.91;99685.50;5068629;28;20039;-29
2022/09/11 03:53:10;;;;;;;14.65;9.70;;;;;;;20.64;84.00;99682.16;5068660;28;20020;-28
2022/09/11 03:55:36;;;;;;;12.98;10.52;;;;;;;20.76;83.05;99682.50;5050125;28;20036;-35
2022/09/11 03:58:01;;;;;;;14.23;10.52;;;;;;;20.73;82.69;99669.53;5050138;28;20023;-31
2022/09/11 04:00:27;;;;;;;13.70;10.10;;;;;;;21.01;80.99;99673.13;5067795;28;20039;-29
2022/09/11 04:02:54;;;;;;;14.35;10.15;;;;;;;20.57;83.40;99674.38;5068129;28;20036;-28
2022/09/11 04:05:23;;;;;;;13.00;9.07;;;;;;;20.71;82.70;99669.03;5049928;28;20065;-34
2022/09/11 04:07:49;;;;;;;13.02;10.18;;;;;;;20.73;82.37;99666.84;5049335;28;20271;-32
2022/09/11 04:10:14;;;;;;;14.05;10.13;;;;;;;20.84;81.71;99673.72;5068055;28;20020;-30
2022/09/11 04:12:40;;;;;;;14.40;10.30;;;;;;;20.72;81.91;99681.50;5067824;28;20078;-30
2022/09/11 04:15:07;;;;;;;14.50;10.52;;;;;;;20.79;82.19;99681.09;5067747;28;20043;-31
2022/09/11 04:17:33;;;;;;;12.23;10.07;;;;;;;20.71;81.61;99663.63;5067723;28;20056;-29
2022/09/11 04:19:59;;;;;;;13.60;10.18;;;;;;;20.64;81.81;99663.19;5067815;28;20029;-31
2022/09/11 04:22:25;;;;;;;18.52;10.05;;;;;;;20.51;83.41;99675.53;5067534;28;20749;-29
2022/09/11 04:24:50;;;;;;;14.07;10.23;;;;;;;20.57;83.03;99668.94;5067937;28;20047;-32
2022/09/11 04:27:17;;;;;;;13.90;9.75;;;;;;;20.70;82.56;99678.28;5067675;28;20033;-29
2022/09/11 04:29:42;;;;;;;16.10;10.02;;;;;;;20.29;82.99;99665.34;5049298;28;20028;-28
2022/09/11 04:32:10;;;;;;;13.55;9.82;;;;;;;20.64;81.96;99684.88;5067657;28;20102;-29
2022/09/11 04:34:36;;;;;;;13.95;9.43;;;;;;;20.54;81.84;99682.28;5067341;28;20039;-34
2022/09/11 04:37:02;;;;;;;15.30;10.05;;;;;;;20.61;83.05;99690.88;5049446;28;20119;-29
2022/09/11 04:39:28;;;;;;;12.50;9.40;;;;;;;20.52;82.44;99676.38;5049359;28;20029;-30
2022/09/11 04:41:54;;;;;;;14.90;10.50;;;;;;;20.65;82.19;99697.31;5067391;28;20029;-28
2022/09/11 04:44:20;;;;;;;17.95;9.93;;;;;;;20.70;81.32;99672.84;5048812;28;20024;-33
2022/09/11 04:46:46;;;;;;;15.15;10.65;;;;;;;20.81;81.31;99693.25;5067554;28;20043;-29
2022/09/11 04:49:13;;;;;;;15.55;10.75;;;;;;;20.64;81.73;99674.03;5032868;28;20028;-35
2022/09/11 04:51:39;;;;;;;15.30;10.65;;;;;;;20.54;83.09;99685.00;5049231;28;20032;-30
2022/09/11 04:54:06;;;;;;;12.77;9.88;;;;;;;20.64;82.43;99691.09;5049035;28;20036;-28
2022/09/11 04:56:36;;;;;;;16.33;10.95;;;;;;;20.62;81.75;99687.88;5048693;28;20032;-32
2022/09/11 04:59:18;;;;;;;15.13;10.43;;;;;;;20.99;80.40;99690.81;5048933;28;20036;-32
2022/09/11 05:01:45;;;;;;;14.95;11.48;;;;;;;20.67;82.15;99682.34;5067068;28;20081;-28
2022/09/11 05:04:11;;;;;;;15.77;10.32;;;;;;;20.89;80.92;99696.41;5048886;28;20520;-30
2022/09/11 05:06:37;;;;;;;16.52;9.93;;;;;;;20.83;81.12;99680.22;5044986;28;20847;-31
2022/09/11 05:09:06;;;;;;;15.05;10.95;;;;;;;21.16;79.56;99696.47;5045551;28;20025;-31
2022/09/11 05:11:33;;;;;;;18.05;11.45;;;;;;;21.35;78.88;99703.72;5045294;28;20039;-33
2022/09/11 05:13:58;;;;;;;14.75;10.40;;;;;;;21.16;78.83;99688.31;5045691;28;20726;-30
2022/09/11 05:16:28;;;;;;;16.00;10.90;;;;;;;21.27;78.19;99702.53;5046683;28;20060;-30
2022/09/11 05:18:55;;;;;;;14.77;10.73;;;;;;;21.22;78.65;99694.47;5044778;28;20508;-29
2022/09/11 05:21:23;;;;;;;15.93;10.85;;;;;;;21.29;78.78;99705.75;5045415;28;20036;-32
2022/09/11 05:23:54;;;;;;;14.38;10.02;;;;;;;21.40;77.64;99700.94;5045303;28;20040;-29
2022/09/11 05:26:21;;;;;;;15.15;10.30;;;;;;;21.52;77.12;99703.97;5045019;28;20044;-34
2022/09/11 05:28:56;;;;;;;15.38;9.95;;;;;;;21.74;77.22;99721.47;5046791;28;20121;-30
2022/09/11 05:31:21;;;;;;;11.90;9.95;;;;;;;21.89;76.66;99707.59;5045269;28;20498;-28
2022/09/11 05:33:47;;;;;;;14.23;9.25;;;;;;;21.86;76.55;99702.75;5045246;28;20032;-29
2022/09/11 05:36:14;;;;;;;14.27;9.73;;;;;;;22.02;76.26;99695.91;5046708;28;20413;-29
2022/09/11 05:38:40;;;;;;;12.93;9.60;;;;;;;22.04;75.85;99698.31;5044775;28;20432;-35
2022/09/11 05:41:07;;;;;;;14.32;9.98;;;;;;;22.08;76.11;99683.81;5045350;28;20120;-30
2022/09/11 05:43:33;;;;;;;13.13;9.57;;;;;;;21.95;74.94;99678.44;5045183;28;20509;-29
2022/09/11 05:45:58;;;;;;;12.55;9.82;;;;;;;21.92;76.03;99679.03;5046545;28;20294;-30
2022/09/11 05:48:27;;;;;;;15.52;10.68;;;;;;;21.89;75.43;99680.44;5046321;28;20032;-31
2022/09/11 05:50:55;;;;;;;14.45;8.85;;;;;;;21.92;75.57;99698.81;5046440;28;20040;-31
2022/09/11 05:53:21;;;;;;;;;;;;;;;22.13;75.49;99692.97;5047112;28;20032;-31
2022/09/11 05:55:47;;;;;;;13.57;9.23;;;;;;;22.31;74.68;99696.69;5046607;28;19909;-29
2022/09/11 05:58:16;;;;;;;12.35;9.63;;;;;;;22.38;74.50;99695.16;5045236;28;20484;-29
2022/09/11 06:00:47;;;;;;;13.40;8.85;;;;;;;22.28;73.46;99681.81;5044679;28;20626;-29
2022/09/11 06:03:14;;;;;;;16.17;9.07;;;;;;;22.36;73.20;99683.00;5045057;28;20097;-33
2022/09/11 06:05:40;;;;;;;17.88;8.63;;;;;;;22.46;72.74;99678.13;5044511;28;20092;-30
2022/09/11 06:08:07;;;;;;;13.40;8.65;;;;;;;22.72;71.86;99695.72;5045133;28;20408;-28
2022/09/11 06:10:34;;;;;;;12.40;7.93;;;;;;;22.77;71.28;99684.75;5028411;28;20037;-31
2022/09/11 06:12:59;;;;;;;12.02;7.88;;;;;;;22.86;70.39;99682.88;5045007;28;20456;-28
2022/09/11 06:15:25;;;;;;;11.23;8.10;;;;;;;23.02;70.01;99694.19;5046474;28;20045;-31
2022/09/11 06:17:52;;;;;;;9.75;7.50;;;;;;;23.12;69.09;99685.78;5044756;28;20025;-29
2022/09/11 06:20:18;;;;;;;19.55;7.38;;;;;;;23.29;67.47;99682.34;5044293;28;20095;-29
2022/09/11 06:22:43;;;;;;;13.52;8.38;;;;;;;23.43;68.00;99693.13;5044761;28;20744;-29
2022/09/11 06:25:08;;;;;;;11.98;7.63;;;;;;;23.38;67.21;99693.28;5046182;28;20036;-32
2022/09/11 06:27:34;;;;;;;10.27;7.28;;;;;;;23.57;67.83;99696.53;5046020;28;20032;-28
2022/09/11 06:29:59;;;;;;;10.57;6.80;;;;;;;23.62;66.44;99685.53;5046785;28;20033;-28
2022/09/11 06:32:25;;;;;;;10.05;6.53;;;;;;;23.53;65.95;99697.50;5048121;28;20051;-33
2022/09/11 06:34:50;;;;;;;10.80;7.20;;;;;;;23.63;66.29;99687.13;5049613;28;20025;-29
2022/09/11 06:37:16;;;;;;;14.57;6.70;;;;;;;23.82;64.77;99692.34;5049700;28;20029;-30
2022/09/11 06:39:41;;;;;;;8.75;6.50;;;;;;;23.61;64.81;99686.63;5048245;28;20060;-29
2022/09/11 06:42:07;;;;;;;9.02;6.80;;;;;;;23.67;63.49;99679.91;5049748;28;20020;-33
2022/09/11 06:44:33;;;;;;;10.50;6.55;;;;;;;23.70;62.80;99691.31;5049463;28;20029;-31
2022/09/11 06:46:59;;;;;;;11.35;7.13;;;;;;;23.97;64.21;99712.88;5048096;28;20070;-29
2022/09/11 06:49:25;;;;;;;9.60;6.65;;;;;;;24.24;63.36;99713.72;5049352;28;20037;-29
2022/09/11 06:51:51;;;;;;;10.55;6.55;;;;;;;24.47;61.49;99714.38;5049711;28;20021;-29
2022/09/11 06:54:16;;;;;;;10.57;5.97;;;;;;;24.53;61.30;99709.59;5049680;28;20040;-29
2022/09/11 06:56:44;;;;;;;7.93;5.45;;;;;;;24.54;60.33;99700.28;5049425;28;20415;-31
2022/09/11 06:59:09;;;;;;;11.15;7.63;;;;;;;24.79;61.60;99706.88;5049273;28;20416;-28
2022/09/11 07:01:34;;;;;;;10.50;6.32;;;;;;;24.97;59.10;99707.66;5049309;28;20230;-31
2022/09/11 07:04:01;;;;;;;12.43;6.85;;;;;;;25.28;59.62;99712.88;5048932;28;20029;-31
2022/09/11 07:06:29;;;;;;;13.63;6.60;;;;;;;25.36;58.90;99695.69;5060698;28;20051;-33
2022/09/11 07:09:01;;;;;;;11.13;5.47;;;;;;;25.43;57.52;99686.97;5051213;28;20021;-31
2022/09/11 07:11:28;;;;;;;12.52;6.20;;;;;;;25.66;57.18;99715.63;5069217;28;20028;-29
2022/09/11 07:13:53;;;;;;;7.57;5.45;;;;;;;25.67;57.72;99713.69;5069187;28;20024;-28
2022/09/11 07:16:19;;;;;;;9.82;5.75;;;;;;;25.70;56.73;99709.50;5068738;28;20094;-37
2022/09/11 07:18:46;;;;;;;9.35;5.45;;;;;;;25.44;56.25;99704.97;5068959;28;20127;-32
2022/09/11 07:21:15;;;;;;;8.13;5.80;;;;;;;25.42;55.43;99704.50;5050811;28;20119;-31
2022/09/11 07:23:42;;;;;;;9.82;6.15;;;;;;;25.44;56.73;99724.06;5069365;28;20028;-30
2022/09/11 07:26:11;;;;;;;10.07;6.93;;;;;;;25.36;56.72;99716.72;5068840;28;20029;-29
2022/09/11 07:28:37;;;;;;;10.07;6.35;;;;;;;25.57;56.67;99722.25;5050461;28;20044;-30
2022/09/11 07:31:04;;;;;;;11.88;6.25;;;;;;;25.55;56.41;99713.59;5050517;28;20072;-29
2022/09/11 07:33:29;;;;;;;7.57;5.88;;;;;;;25.51;54.95;99707.97;5068955;28;20029;-28
2022/09/11 07:35:55;;;;;;;13.23;7.53;;;;;;;25.79;57.81;99702.88;5068893;28;20037;-31
2022/09/11 07:38:20;;;;;;;9.52;6.80;;;;;;;25.95;54.46;99700.41;5068393;28;20032;-30
2022/09/11 07:40:45;;;;;;;11.15;9.15;;;;;;;25.81;53.72;99716.19;5068539;28;20101;-29
2022/09/11 07:43:12;;;;;;;11.50;7.80;;;;;;;25.85;53.60;99711.69;5049453;28;20766;-30
2022/09/11 07:45:38;;;;;;;7.00;5.28;;;;;;;25.91;52.10;99713.13;5068314;28;20056;-29
2022/09/11 07:48:05;;;;;;;11.00;6.10;;;;;;;26.03;55.66;99707.75;5050458;28;20055;-28
2022/09/11 07:50:31;;;;;;;7.13;5.53;;;;;;;26.06;53.92;99712.53;5068036;28;20030;-29
2022/09/11 07:52:56;;;;;;;8.82;5.90;;;;;;;26.11;52.61;99708.78;5050172;28;20042;-29
2022/09/11 07:55:22;;;;;;;8.75;6.18;;;;;;;26.39;55.47;99722.75;5068168;28;20024;-31
2022/09/11 07:57:48;;;;;;;13.05;5.78;;;;;;;26.46;52.81;99706.63;5068256;28;20078;-28
2022/09/11 08:00:15;;;;;;;10.13;6.20;;;;;;;26.20;53.15;99704.09;5049746;28;20027;-29
2022/09/11 08:02:41;;;;;;;10.87;5.97;;;;;;;26.67;51.59;99724.97;5068351;28;20161;-29
2022/09/11 08:05:07;;;;;;;9.93;5.45;;;;;;;26.72;51.41;99708.34;5049566;28;20044;-30
2022/09/11 08:07:33;;;;;;;7.80;5.13;;;;;;;26.84;52.22;99719.34;5049901;28;20016;-28
2022/09/11 08:09:58;;;;;;;8.07;5.35;;;;;;;26.89;49.47;99721.09;5067890;28;20028;-29
2022/09/11 08:12:23;;;;;;;6.80;4.85;;;;;;;26.69;49.84;99711.78;5067784;28;20028;-32
2022/09/11 08:14:49;;;;;;;8.70;5.50;;;;;;;26.67;51.05;99683.94;5067606;28;20512;-29
2022/09/11 08:17:15;;;;;;;8.63;5.05;;;;;;;26.72;49.14;99694.66;5049736;28;20024;-28
2022/09/11 08:19:40;;;;;;;8.18;4.68;;;;;;;26.92;47.90;99716.88;5049809;28;20668;-29
2022/09/11 08:22:06;;;;;;;8.13;5.07;;;;;;;26.78;50.75;99698.00;5067534;28;20039;-29
2022/09/11 08:24:32;;;;;;;8.90;5.10;;;;;;;26.90;48.78;99705.47;5067399;28;20025;-29
2022/09/11 08:26:58;;;;;;;8.27;5.20;;;;;;;26.77;46.95;99701.88;5067644;28;20163;-31
2022/09/11 08:29:23;;;;;;;8.40;4.80;;;;;;;26.91;47.35;99702.41;5049191;28;20036;-35
2022/09/11 08:31:49;;;;;;;9.57;6.10;;;;;;;27.08;48.78;99690.47;5067425;28;20032;-28
2022/09/11 08:34:15;;;;;;;7.00;4.57;;;;;;;27.19;45.42;99697.06;5067462;28;20458;-28
2022/09/11 08:36:40;;;;;;;7.70;4.88;;;;;;;27.22;44.34;99680.00;5049036;28;20027;-29
2022/09/11 08:39:07;;;;;;;6.68;4.35;;;;;;;27.27;44.31;99684.47;5067428;28;20048;-29
2022/09/11 08:41:47;;;;;;;5.82;4.43;;;;;;;27.29;45.96;99689.59;5067271;28;20028;-29
2022/09/11 08:44:24;;;;;;;7.38;4.05;;;;;;;27.59;43.03;99688.25;5067526;28;20052;-35
2022/09/11 08:46:58;;;;;;;7.78;4.18;;;;;;;27.49;43.64;99682.44;5049094;28;20488;-29
2022/09/11 08:49:25;;;;;;;9.88;5.45;;;;;;;27.76;45.92;99664.50;5067270;28;20067;-32
2022/09/11 08:51:55;;;;;;;8.68;4.80;;;;;;;28.12;43.96;99676.59;5066981;28;20032;-28
2022/09/11 08:54:32;;;;;;;6.85;4.72;;;;;;;28.11;45.33;99661.28;5066680;28;20037;-31
2022/09/11 08:57:38;;;;;;;9.02;4.85;;;;;;;28.40;42.34;99677.41;5048995;28;20078;-31
2022/09/11 09:00:09;;;;;;;7.60;4.63;;;;;;;28.28;43.21;99665.69;5046629;28;20036;-28
2022/09/11 09:02:50;;;;;;;9.27;5.05;;;;;;;28.23;43.69;99666.72;5067103;28;20367;-29
2022/09/11 09:05:44;;;;;;;9.30;4.28;;;;;;;28.22;41.04;99654.19;5048542;28;20041;-35
2022/09/11 09:08:16;;;;;;;5.65;4.05;;;;;;;28.51;43.17;99665.97;5066964;28;20115;-31
2022/09/11 09:10:50;;;;;;;7.82;4.13;;;;;;;28.41;40.91;99646.09;5066565;28;20090;-29
2022/09/11 09:14:01;;;;;;;7.82;3.97;;;;;;;28.30;40.78;99655.97;5048673;28;20032;-29
2022/09/11 09:16:50;;;;;;;6.20;3.78;;;;;;;28.46;42.03;99656.00;5020769;28;20045;-34
2022/09/11 09:19:25;;;;;;;6.15;3.90;;;;;;;28.45;39.88;99644.25;5066457;28;20446;-32
2022/09/11 09:21:54;;;;;;;6.10;3.30;;;;;;;28.52;37.55;99645.63;5066934;28;20032;-29
2022/09/11 09:24:20;;;;;;;4.53;3.30;;;;;;;28.93;40.06;99640.81;5048238;28;20044;-30
2022/09/11 09:26:57;;;;;;;7.65;3.78;;;;;;;29.07;39.17;99626.66;5066608;28;20029;-30
2022/09/11 09:29:30;;;;;;;7.57;4.18;;;;;;;29.23;39.93;99642.00;5066538;28;20028;-29
2022/09/11 09:32:10;;;;;;;10.07;3.97;;;;;;;29.03;38.93;99643.88;5048249;28;20040;-35
2022/09/11 09:34:39;;;;;;;7.35;4.10;;;;;;;29.12;40.30;99638.22;5066310;28;20533;-30
2022/09/11 09:37:16;;;;;;;6.30;3.90;;;;;;;29.35;40.65;99624.66;5048553;28;20047;-30
2022/09/11 09:39:43;;;;;;;6.78;3.72;;;;;;;29.53;38.71;99633.31;5048447;28;20048;-30
2022/09/11 09:42:18;;;;;;;7.13;4.00;;;;;;;29.58;38.36;99619.28;5066410;28;20089;-33
2022/09/11 09:45:00;;;;;;;6.28;3.90;;;;;;;29.68;38.38;99617.16;5048454;28;20140;-32
2022/09/11 09:47:25;;;;;;;7.57;3.97;;;;;;;29.69;38.28;99599.50;5048225;28;20416;-31
2022/09/11 09:49:51;;;;;;;6.55;4.40;;;;;;;29.73;40.44;99611.38;5048266;28;20025;-31
2022/09/11 09:52:18;;;;;;;8.30;5.43;;;;;;;29.63;40.14;99619.03;5066348;28;20032;-29
2022/09/11 09:54:58;;;;;;;6.88;4.30;;;;;;;29.41;39.90;99592.22;5048039;28;20025;-37
2022/09/11 09:57:28;;;;;;;6.53;3.88;;;;;;;29.84;39.98;99607.72;5048291;28;20514;-38
2022/09/11 10:00:02;;;;;;;5.47;3.58;;;;;;;29.86;38.40;99610.13;5066739;28;20621;-32
2022/09/11 10:02:47;;;;;;;5.57;3.60;;;;;;;30.10;38.01;99602.75;5065996;28;20028;-34
2022/09/11 10:05:15;;;;;;;7.35;3.40;;;;;;;30.15;38.21;99575.75;5048577;28;20029;-30
2022/09/11 10:07:56;;;;;;;5.93;3.30;;;;;;;30.20;37.61;99602.19;5052192;28;20106;-30
2022/09/11 10:10:35;;;;;;;6.20;3.63;;;;;;;30.44;37.08;99593.66;5070028;28;20024;-29
2022/09/11 10:13:23;;;;;;;6.30;3.15;;;;;;;30.36;39.05;99602.94;5051948;28;20105;-29
2022/09/11 10:15:51;;;;;;;6.65;3.13;;;;;;;30.42;35.95;99601.47;5070304;28;20032;-31
2022/09/11 10:18:33;;;;;;;4.93;2.95;;;;;;;30.26;34.51;99597.97;5051933;28;20032;-32
2022/09/11 10:21:11;;;;;;;4.75;2.38;;;;;;;30.40;32.79;99609.28;5051706;28;20063;-29
2022/09/11 10:23:53;;;;;;;3.92;2.50;;;;;;;30.63;32.77;99594.78;5069823;28;20107;-35
2022/09/11 10:26:23;;;;;;;5.53;2.83;;;;;;;30.71;33.77;99585.47;5069679;28;20037;-33
2022/09/11 10:28:49;;;;;;;9.82;3.30;;;;;;;30.63;35.33;99578.25;5051826;28;20060;-33
2022/09/11 10:31:15;;;;;;;6.10;3.38;;;;;;;30.93;33.64;99592.16;5069771;28;20052;-32
2022/09/11 10:33:56;;;;;;;7.78;3.03;;;;;;;31.10;33.23;99579.03;5051637;28;20048;-28
2022/09/11 10:36:24;;;;;;;6.28;3.38;;;;;;;31.45;33.77;99589.84;5051098;28;20033;-29
2022/09/11 10:38:51;;;;;;;5.40;2.92;;;;;;;31.84;33.98;99584.88;5051739;28;20033;-31
2022/09/11 10:41:25;;;;;;;6.43;3.03;;;;;;;31.92;31.16;99585.75;5069637;28;20045;-33
2022/09/11 10:44:16;;;;;;;5.28;3.00;;;;;;;31.71;32.76;99585.47;5069806;28;20024;-31
2022/09/11 10:46:44;;;;;;;4.57;2.80;;;;;;;32.03;32.96;99566.59;5064153;28;20051;-28
2022/09/11 10:49:15;;;;;;;4.95;3.10;;;;;;;31.72;31.51;99573.28;5069574;28;20107;-30
2022/09/11 10:51:56;;;;;;;6.20;2.88;;;;;;;31.61;33.31;99549.13;5069256;28;20385;-33
2022/09/11 10:54:40;;;;;;;4.93;3.30;;;;;;;31.56;33.33;99573.47;5051249;28;20478;-29
2022/09/11 10:57:17;;;;;;;5.07;3.08;;;;;;;31.63;32.47;99559.78;5069975;28;20036;-30
2022/09/11 10:59:44;;;;;;;;;;;;;;;31.62;32.22;99572.75;5051614;28;20492;-35
2022/09/11 11:02:19;;;;;;;7.00;3.20;;;;;;;31.57;31.87;99555.78;5050997;28;20346;-37
2022/09/11 11:04:46;;;;;;;4.40;2.85;;;;;;;32.26;31.12;99560.16;5069082;28;20500;-34
2022/09/11 11:07:33;;;;;;;5.38;3.08;;;;;;;32.32;30.76;99570.47;5050816;28;20416;-29
2022/09/11 11:10:07;;;;;;;7.93;3.10;;;;;;;31.94;31.56;99552.28;5069062;28;20499;-31
2022/09/11 11:12:49;;;;;;;6.35;3.22;;;;;;;32.40;31.77;99563.06;5050794;28;20074;-31
2022/09/11 11:16:15;;;;;;;5.72;3.17;;;;;;;32.90;31.05;99557.25;5050669;28;20036;-31
2022/09/11 11:18:46;;;;;;;5.72;3.33;;;;;;;32.38;30.88;99557.91;4989309;28;20517;-31
2022/09/11 11:21:15;;;;;;;6.50;3.47;;;;;;;32.35;31.74;99550.41;5068602;28;20044;-35
2022/09/11 11:24:00;;;;;;;4.72;3.33;;;;;;;32.53;31.46;99558.06;5050456;28;20040;-32
2022/09/11 11:26:38;;;;;;;7.47;3.35;;;;;;;32.30;31.08;99553.50;5050212;28;20033;-31
2022/09/11 11:29:27;;;;;;;5.68;3.03;;;;;;;32.46;31.04;99544.19;5050911;28;20059;-30
2022/09/11 11:31:55;;;;;;;5.05;3.47;;;;;;;32.81;30.69;99547.28;5050467;28;20028;-29
2022/09/11 11:34:42;;;;;;;6.57;3.53;;;;;;;32.59;31.23;99545.53;5050445;28;20039;-32
2022/09/11 11:37:23;;;;;;;;;;;;;;;31.82;32.31;99539.53;5069015;28;20396;-30
2022/09/11 11:40:27;;;;;;;7.28;3.55;;;;;;;32.15;32.89;99535.22;5068707;28;19918;-36
2022/09/11 11:42:59;;;;;;;7.13;3.50;;;;;;;32.25;32.54;99531.78;5068526;28;20096;-33
2022/09/11 11:45:30;;;;;;;5.97;3.10;;;;;;;31.87;30.62;99525.41;5050442;28;20040;-30